sensor_id;sensor_type;location;lat;lon;timestamp;pressure;altitude;pressure_sealevel;temperature;humidity
52469;BME280;38381;53.688;10.776;2023-04-28T00:03:42;101594.56;;;2.65;78.40
52469;BME280;38381;53.688;10.776;2023-04-28T00:08:42;101589.13;;;2.58;78.09
52469;BME280;38381;53.688;10.776;2023-04-28T00:13:43;101582.16;;;2.56;78.36
52469;BME280;38381;53.688;10.776;2023-04-28T00:18:43;101582.72;;;2.50;77.30
52469;BME280;38381;53.688;10.776;2023-04-28T00:23:44;101579.66;;;2.41;77.64
52469;BME280;38381;53.688;10.776;2023-04-28T00:28:44;101575.59;;;2.28;78.10
52469;BME280;38381;53.688;10.776;2023-04-28T00:33:44;101572.31;;;2.31;78.57
52469;BME280;38381;53.688;10.776;2023-04-28T00:38:45;101566.94;;;2.26;79.47
52469;BME280;38381;53.688;10.776;2023-04-28T00:43:46;101564.16;;;2.21;79.78
52469;BME280;38381;53.688;10.776;2023-04-28T00:48:47;101559.03;;;2.21;79.62
52469;BME280;38381;53.688;10.776;2023-04-28T00:53:49;101552.63;;;2.13;79.79
52469;BME280;38381;53.688;10.776;2023-04-28T00:58:50;101550.06;;;2.13;79.38
52469;BME280;38381;53.688;10.776;2023-04-28T01:03:50;101547.44;;;2.12;79.50
52469;BME280;38381;53.688;10.776;2023-04-28T01:08:51;101544.63;;;2.07;78.91
52469;BME280;38381;53.688;10.776;2023-04-28T01:13:52;101547.88;;;2.05;78.33
52469;BME280;38381;53.688;10.776;2023-04-28T01:18:53;101545.16;;;2.01;78.72
52469;BME280;38381;53.688;10.776;2023-04-28T01:23:55;101536.44;;;1.98;78.71
52469;BME280;38381;53.688;10.776;2023-04-28T01:28:55;101531.97;;;1.94;78.53
52469;BME280;38381;53.688;10.776;2023-04-28T01:33:56;101529.88;;;1.87;79.76
52469;BME280;38381;53.688;10.776;2023-04-28T01:38:56;101531.53;;;1.86;79.08
52469;BME280;38381;53.688;10.776;2023-04-28T01:43:57;101531.47;;;1.85;78.78
52469;BME280;38381;53.688;10.776;2023-04-28T01:48:57;101521.88;;;1.80;78.74
52469;BME280;38381;53.688;10.776;2023-04-28T01:53:57;101526.03;;;1.78;79.09
52469;BME280;38381;53.688;10.776;2023-04-28T01:58:58;101522.50;;;1.76;78.60
52469;BME280;38381;53.688;10.776;2023-04-28T02:03:58;101522.19;;;1.70;79.12
52469;BME280;38381;53.688;10.776;2023-04-28T02:08:59;101516.09;;;1.68;79.42
52469;BME280;38381;53.688;10.776;2023-04-28T02:13:59;101508.25;;;1.65;79.44
52469;BME280;38381;53.688;10.776;2023-04-28T02:19:00;101508.97;;;1.63;78.73
52469;BME280;38381;53.688;10.776;2023-04-28T02:24:00;101515.59;;;1.59;78.97
52469;BME280;38381;53.688;10.776;2023-04-28T02:29:01;101511.28;;;1.58;79.18
52469;BME280;38381;53.688;10.776;2023-04-28T02:34:03;101502.66;;;1.56;78.67
52469;BME280;38381;53.688;10.776;2023-04-28T02:39:03;101509.25;;;1.52;79.69
52469;BME280;38381;53.688;10.776;2023-04-28T02:44:04;101494.56;;;1.48;80.08
52469;BME280;38381;53.688;10.776;2023-04-28T02:49:04;101497.88;;;1.47;79.44
52469;BME280;38381;53.688;10.776;2023-04-28T02:54:05;101485.06;;;1.46;80.09
52469;BME280;38381;53.688;10.776;2023-04-28T02:59:05;101482.41;;;1.44;80.74
52469;BME280;38381;53.688;10.776;2023-04-28T03:04:06;101478.97;;;1.44;80.64
52469;BME280;38381;53.688;10.776;2023-04-28T03:09:07;101478.06;;;1.43;81.45
52469;BME280;38381;53.688;10.776;2023-04-28T03:14:08;101463.53;;;1.42;81.55
52469;BME280;38381;53.688;10.776;2023-04-28T03:19:08;101464.41;;;1.43;82.38
52469;BME280;38381;53.688;10.776;2023-04-28T03:24:09;101455.16;;;1.45;82.25
52469;BME280;38381;53.688;10.776;2023-04-28T03:29:09;101451.81;;;1.46;82.65
52469;BME280;38381;53.688;10.776;2023-04-28T03:34:10;101444.94;;;1.45;82.33
52469;BME280;38381;53.688;10.776;2023-04-28T03:39:10;101443.19;;;1.44;83.24
52469;BME280;38381;53.688;10.776;2023-04-28T03:44:10;101438.31;;;1.48;82.98
52469;BME280;38381;53.688;10.776;2023-04-28T03:49:11;101426.50;;;1.50;83.22
52469;BME280;38381;53.688;10.776;2023-04-28T03:54:11;101425.78;;;1.53;84.00
52469;BME280;38381;53.688;10.776;2023-04-28T03:59:12;101421.63;;;1.55;83.51
52469;BME280;38381;53.688;10.776;2023-04-28T04:04:13;101429.28;;;1.55;83.71
52469;BME280;38381;53.688;10.776;2023-04-28T04:09:13;101420.84;;;1.56;84.09
52469;BME280;38381;53.688;10.776;2023-04-28T04:14:13;101418.19;;;1.54;83.49
52469;BME280;38381;53.688;10.776;2023-04-28T04:19:14;101419.25;;;1.58;83.58
52469;BME280;38381;53.688;10.776;2023-04-28T04:24:14;101423.78;;;1.64;82.75
52469;BME280;38381;53.688;10.776;2023-04-28T04:29:15;101411.28;;;1.68;83.02
52469;BME280;38381;53.688;10.776;2023-04-28T04:34:15;101414.16;;;1.74;82.89
52469;BME280;38381;53.688;10.776;2023-04-28T04:39:16;101406.81;;;1.80;83.46
52469;BME280;38381;53.688;10.776;2023-04-28T04:44:16;101408.00;;;1.87;83.85
52469;BME280;38381;53.688;10.776;2023-04-28T04:49:16;101397.34;;;1.96;83.74
52469;BME280;38381;53.688;10.776;2023-04-28T04:54:17;101406.47;;;2.07;83.67
52469;BME280;38381;53.688;10.776;2023-04-28T04:59:17;101385.81;;;2.20;84.03
52469;BME280;38381;53.688;10.776;2023-04-28T05:04:18;101378.91;;;2.36;83.51
52469;BME280;38381;53.688;10.776;2023-04-28T05:09:18;101377.75;;;2.47;83.18
52469;BME280;38381;53.688;10.776;2023-04-28T05:14:19;101364.22;;;2.68;83.14
52469;BME280;38381;53.688;10.776;2023-04-28T05:19:19;101361.22;;;2.94;83.18
52469;BME280;38381;53.688;10.776;2023-04-28T05:24:21;101361.84;;;3.26;82.89
52469;BME280;38381;53.688;10.776;2023-04-28T05:29:24;101356.06;;;3.69;81.32
52469;BME280;38381;53.688;10.776;2023-04-28T05:34:25;101355.78;;;4.02;79.20
52469;BME280;38381;53.688;10.776;2023-04-28T05:39:25;101337.47;;;4.35;78.18
52469;BME280;38381;53.688;10.776;2023-04-28T05:44:26;101339.75;;;4.50;77.56
52469;BME280;38381;53.688;10.776;2023-04-28T05:49:26;101344.06;;;4.72;76.81
52469;BME280;38381;53.688;10.776;2023-04-28T05:54:26;101342.69;;;4.80;76.10
52469;BME280;38381;53.688;10.776;2023-04-28T05:59:27;101339.66;;;5.13;75.16
52469;BME280;38381;53.688;10.776;2023-04-28T06:04:29;101332.16;;;5.41;73.28
52469;BME280;38381;53.688;10.776;2023-04-28T06:09:30;101331.88;;;5.58;72.20
52469;BME280;38381;53.688;10.776;2023-04-28T06:14:30;101320.63;;;5.80;71.34
52469;BME280;38381;53.688;10.776;2023-04-28T06:19:31;101327.34;;;5.99;69.82
52469;BME280;38381;53.688;10.776;2023-04-28T06:24:31;101326.94;;;6.12;69.10
52469;BME280;38381;53.688;10.776;2023-04-28T06:29:32;101307.44;;;6.46;68.14
52469;BME280;38381;53.688;10.776;2023-04-28T06:34:36;101295.53;;;6.78;64.59
52469;BME280;38381;53.688;10.776;2023-04-28T06:39:36;101293.09;;;7.12;63.08
52469;BME280;38381;53.688;10.776;2023-04-28T06:44:37;101288.38;;;7.27;64.38
52469;BME280;38381;53.688;10.776;2023-04-28T06:49:37;101294.84;;;7.43;61.86
52469;BME280;38381;53.688;10.776;2023-04-28T06:54:38;101291.38;;;7.74;61.47
52469;BME280;38381;53.688;10.776;2023-04-28T06:59:38;101295.94;;;7.84;60.19
52469;BME280;38381;53.688;10.776;2023-04-28T07:04:39;101285.88;;;7.95;59.95
52469;BME280;38381;53.688;10.776;2023-04-28T07:09:39;101285.13;;;8.34;59.28
52469;BME280;38381;53.688;10.776;2023-04-28T07:14:39;101277.78;;;8.89;56.17
52469;BME280;38381;53.688;10.776;2023-04-28T07:19:40;101262.81;;;9.15;54.13
52469;BME280;38381;53.688;10.776;2023-04-28T07:24:40;101266.50;;;8.84;54.81
52469;BME280;38381;53.688;10.776;2023-04-28T07:29:41;101261.44;;;9.33;53.31
52469;BME280;38381;53.688;10.776;2023-04-28T07:34:41;101257.59;;;9.56;51.89
52469;BME280;38381;53.688;10.776;2023-04-28T07:39:42;101258.34;;;9.51;51.43
52469;BME280;38381;53.688;10.776;2023-04-28T07:44:42;101261.47;;;9.81;51.23
52469;BME280;38381;53.688;10.776;2023-04-28T07:49:43;101258.53;;;9.61;50.25
52469;BME280;38381;53.688;10.776;2023-04-28T07:54:43;101244.09;;;9.74;49.63
52469;BME280;38381;53.688;10.776;2023-04-28T07:59:43;101245.72;;;10.21;49.90
52469;BME280;38381;53.688;10.776;2023-04-28T08:04:44;101244.41;;;10.44;48.72
52469;BME280;38381;53.688;10.776;2023-04-28T08:09:44;101240.63;;;10.25;48.99
52469;BME280;38381;53.688;10.776;2023-04-28T08:14:47;101232.59;;;10.66;48.76
52469;BME280;38381;53.688;10.776;2023-04-28T08:19:47;101226.34;;;10.52;48.52
52469;BME280;38381;53.688;10.776;2023-04-28T08:24:48;101232.41;;;10.53;48.84
52469;BME280;38381;53.688;10.776;2023-04-28T08:29:48;101234.63;;;10.91;47.53
52469;BME280;38381;53.688;10.776;2023-04-28T08:34:49;101222.53;;;10.90;48.20
52469;BME280;38381;53.688;10.776;2023-04-28T08:39:49;101221.75;;;10.98;47.48
52469;BME280;38381;53.688;10.776;2023-04-28T08:44:52;101224.63;;;11.21;47.44
52469;BME280;38381;53.688;10.776;2023-04-28T08:50:03;101214.50;;;11.47;46.57
52469;BME280;38381;53.688;10.776;2023-04-28T08:55:09;101212.78;;;11.48;45.05
52469;BME280;38381;53.688;10.776;2023-04-28T09:00:11;101205.34;;;11.01;45.43
52469;BME280;38381;53.688;10.776;2023-04-28T09:05:12;101203.09;;;11.30;46.36
52469;BME280;38381;53.688;10.776;2023-04-28T09:10:21;101200.91;;;11.73;46.41
52469;BME280;38381;53.688;10.776;2023-04-28T09:15:48;101203.09;;;11.30;46.23
52469;BME280;38381;53.688;10.776;2023-04-28T09:20:50;101181.72;;;11.60;45.90
52469;BME280;38381;53.688;10.776;2023-04-28T09:26:17;101179.31;;;11.80;45.55
52469;BME280;38381;53.688;10.776;2023-04-28T09:31:22;101172.81;;;11.34;45.51
52469;BME280;38381;53.688;10.776;2023-04-28T09:36:30;101169.59;;;11.58;45.89
52469;BME280;38381;53.688;10.776;2023-04-28T09:41:39;101160.25;;;11.81;45.47
52469;BME280;38381;53.688;10.776;2023-04-28T09:46:41;101160.56;;;12.23;45.26
52469;BME280;38381;53.688;10.776;2023-04-28T09:51:41;101149.81;;;11.75;45.31
52469;BME280;38381;53.688;10.776;2023-04-28T09:56:42;101148.16;;;11.86;46.11
52469;BME280;38381;53.688;10.776;2023-04-28T10:01:46;101138.88;;;12.16;45.45
52469;BME280;38381;53.688;10.776;2023-04-28T10:06:48;101134.34;;;11.89;45.05
52469;BME280;38381;53.688;10.776;2023-04-28T10:11:49;101130.81;;;11.79;44.97
52469;BME280;38381;53.688;10.776;2023-04-28T10:16:50;101124.13;;;12.20;45.63
52469;BME280;38381;53.688;10.776;2023-04-28T10:22:02;101110.44;;;12.47;44.52
52469;BME280;38381;53.688;10.776;2023-04-28T10:27:08;101107.75;;;12.32;45.56
52469;BME280;38381;53.688;10.776;2023-04-28T10:32:22;101098.16;;;12.26;45.06
52469;BME280;38381;53.688;10.776;2023-04-28T10:43:08;101090.59;;;12.87;45.73
52469;BME280;38381;53.688;10.776;2023-04-28T10:48:09;101083.69;;;13.22;44.29
52469;BME280;38381;53.688;10.776;2023-04-28T10:53:10;101086.31;;;13.13;44.49
52469;BME280;38381;53.688;10.776;2023-04-28T10:58:29;101073.28;;;13.06;44.98
52469;BME280;38381;53.688;10.776;2023-04-28T11:19:22;101061.13;;;13.24;45.68
52469;BME280;38381;53.688;10.776;2023-04-28T11:24:25;101057.59;;;12.77;45.54
52469;BME280;38381;53.688;10.776;2023-04-28T11:29:36;101060.19;;;12.73;45.40
52469;BME280;38381;53.688;10.776;2023-04-28T11:34:37;101051.50;;;12.64;45.02
52469;BME280;38381;53.688;10.776;2023-04-28T11:39:37;101043.78;;;13.27;44.39
52469;BME280;38381;53.688;10.776;2023-04-28T11:44:38;101043.72;;;12.89;45.32
52469;BME280;38381;53.688;10.776;2023-04-28T11:49:43;101036.81;;;13.20;44.85
52469;BME280;38381;53.688;10.776;2023-04-28T11:54:44;101032.50;;;13.30;45.23
52469;BME280;38381;53.688;10.776;2023-04-28T11:59:44;101029.88;;;13.08;45.35
52469;BME280;38381;53.688;10.776;2023-04-28T12:04:45;101019.50;;;13.32;45.78
52469;BME280;38381;53.688;10.776;2023-04-28T12:10:09;101015.13;;;13.37;45.32
52469;BME280;38381;53.688;10.776;2023-04-28T12:15:08;101007.25;;;13.74;45.32
52469;BME280;38381;53.688;10.776;2023-04-28T12:20:11;100998.50;;;13.90;44.09
52469;BME280;38381;53.688;10.776;2023-04-28T12:25:13;100998.47;;;13.99;44.87
52469;BME280;38381;53.688;10.776;2023-04-28T12:35:21;100991.69;;;13.31;44.79
52469;BME280;38381;53.688;10.776;2023-04-28T12:40:21;100988.19;;;13.64;44.69
52469;BME280;38381;53.688;10.776;2023-04-28T12:45:23;100977.69;;;13.88;44.66
52469;BME280;38381;53.688;10.776;2023-04-28T12:50:23;100975.88;;;13.98;44.34
52469;BME280;38381;53.688;10.776;2023-04-28T12:55:26;100966.34;;;13.99;44.02
52469;BME280;38381;53.688;10.776;2023-04-28T13:00:27;100963.59;;;14.19;44.05
52469;BME280;38381;53.688;10.776;2023-04-28T13:05:28;100952.47;;;13.86;43.98
52469;BME280;38381;53.688;10.776;2023-04-28T13:10:29;100949.00;;;13.85;44.68
52469;BME280;38381;53.688;10.776;2023-04-28T13:15:30;100941.03;;;14.18;43.90
52469;BME280;38381;53.688;10.776;2023-04-28T13:20:30;100923.69;;;14.04;43.94
52469;BME280;38381;53.688;10.776;2023-04-28T13:25:30;100917.72;;;13.85;44.54
52469;BME280;38381;53.688;10.776;2023-04-28T13:30:31;100918.41;;;14.20;45.53
52469;BME280;38381;53.688;10.776;2023-04-28T13:35:31;100909.06;;;13.77;44.53
52469;BME280;38381;53.688;10.776;2023-04-28T13:40:33;100903.72;;;14.05;44.91
52469;BME280;38381;53.688;10.776;2023-04-28T13:45:34;100904.66;;;13.84;44.21
52469;BME280;38381;53.688;10.776;2023-04-28T13:50:34;100900.25;;;14.03;44.68
52469;BME280;38381;53.688;10.776;2023-04-28T13:55:35;100913.25;;;14.09;45.00
52469;BME280;38381;53.688;10.776;2023-04-28T14:00:36;100901.00;;;14.22;44.98
52469;BME280;38381;53.688;10.776;2023-04-28T14:05:37;100905.31;;;14.24;45.32
52469;BME280;38381;53.688;10.776;2023-04-28T14:10:37;100900.06;;;14.34;45.29
52469;BME280;38381;53.688;10.776;2023-04-28T14:15:38;100891.38;;;14.32;45.64
52469;BME280;38381;53.688;10.776;2023-04-28T14:20:39;100877.34;;;14.46;44.23
52469;BME280;38381;53.688;10.776;2023-04-28T14:25:39;100884.47;;;14.24;45.83
52469;BME280;38381;53.688;10.776;2023-04-28T14:30:40;100871.50;;;14.11;46.09
52469;BME280;38381;53.688;10.776;2023-04-28T14:35:40;100865.38;;;14.18;45.99
52469;BME280;38381;53.688;10.776;2023-04-28T14:40:41;100860.13;;;14.25;45.91
52469;BME280;38381;53.688;10.776;2023-04-28T14:45:42;100859.00;;;14.60;46.46
52469;BME280;38381;53.688;10.776;2023-04-28T14:50:43;100845.84;;;14.69;45.69
52469;BME280;38381;53.688;10.776;2023-04-28T14:55:45;100845.84;;;14.69;45.18
52469;BME280;38381;53.688;10.776;2023-04-28T15:00:45;100840.63;;;14.69;45.76
52469;BME280;38381;53.688;10.776;2023-04-28T15:05:46;100839.88;;;14.54;45.49
52469;BME280;38381;53.688;10.776;2023-04-28T15:10:46;100838.19;;;14.46;45.05
52469;BME280;38381;53.688;10.776;2023-04-28T15:15:46;100841.72;;;14.39;45.94
52469;BME280;38381;53.688;10.776;2023-04-28T15:20:48;100838.53;;;14.00;45.79
52469;BME280;38381;53.688;10.776;2023-04-28T15:25:48;100835.06;;;14.00;45.59
52469;BME280;38381;53.688;10.776;2023-04-28T15:30:52;100823.69;;;14.08;46.49
52469;BME280;38381;53.688;10.776;2023-04-28T15:35:53;100818.44;;;14.19;46.34
52469;BME280;38381;53.688;10.776;2023-04-28T15:40:53;100815.69;;;14.36;45.84
52469;BME280;38381;53.688;10.776;2023-04-28T15:45:54;100806.81;;;14.56;46.00
52469;BME280;38381;53.688;10.776;2023-04-28T15:50:54;100797.22;;;14.59;45.03
52469;BME280;38381;53.688;10.776;2023-04-28T15:55:55;100802.44;;;14.61;44.90
52469;BME280;38381;53.688;10.776;2023-04-28T16:00:56;100798.09;;;14.55;45.78
52469;BME280;38381;53.688;10.776;2023-04-28T16:05:58;100787.63;;;14.63;46.20
52469;BME280;38381;53.688;10.776;2023-04-28T16:11:00;100794.56;;;14.67;46.73
52469;BME280;38381;53.688;10.776;2023-04-28T16:16:03;100798.81;;;14.74;45.81
52469;BME280;38381;53.688;10.776;2023-04-28T16:21:03;100786.59;;;14.79;45.37
52469;BME280;38381;53.688;10.776;2023-04-28T16:26:04;100788.44;;;14.69;45.62
52469;BME280;38381;53.688;10.776;2023-04-28T16:31:04;100773.72;;;14.62;45.94
52469;BME280;38381;53.688;10.776;2023-04-28T16:36:05;100772.88;;;14.57;46.89
52469;BME280;38381;53.688;10.776;2023-04-28T16:41:05;100765.00;;;14.63;46.82
52469;BME280;38381;53.688;10.776;2023-04-28T16:46:06;100763.31;;;14.59;47.06
52469;BME280;38381;53.688;10.776;2023-04-28T16:51:10;100757.22;;;14.60;47.09
52469;BME280;38381;53.688;10.776;2023-04-28T16:56:10;100738.94;;;14.60;47.27
52469;BME280;38381;53.688;10.776;2023-04-28T17:01:11;100739.84;;;14.56;47.88
52469;BME280;38381;53.688;10.776;2023-04-28T17:06:12;100733.06;;;14.35;48.50
52469;BME280;38381;53.688;10.776;2023-04-28T17:11:15;100734.91;;;14.22;49.20
52469;BME280;38381;53.688;10.776;2023-04-28T17:16:16;100736.78;;;14.09;49.35
52469;BME280;38381;53.688;10.776;2023-04-28T17:21:17;100736.03;;;13.95;49.51
52469;BME280;38381;53.688;10.776;2023-04-28T17:26:17;100734.38;;;13.83;50.06
52469;BME280;38381;53.688;10.776;2023-04-28T17:31:18;100736.13;;;13.84;50.08
52469;BME280;38381;53.688;10.776;2023-04-28T17:36:19;100728.28;;;13.81;50.36
52469;BME280;38381;53.688;10.776;2023-04-28T17:41:20;100727.41;;;13.84;49.93
52469;BME280;38381;53.688;10.776;2023-04-28T17:46:22;100725.72;;;13.78;50.33
52469;BME280;38381;53.688;10.776;2023-04-28T17:51:22;100729.25;;;13.71;50.05
52469;BME280;38381;53.688;10.776;2023-04-28T17:56:22;100724.03;;;13.74;50.23
52469;BME280;38381;53.688;10.776;2023-04-28T18:01:23;100726.63;;;13.74;50.43
52469;BME280;38381;53.688;10.776;2023-04-28T18:06:24;100726.53;;;13.82;50.94
52469;BME280;38381;53.688;10.776;2023-04-28T18:11:24;100738.81;;;13.72;52.33
52469;BME280;38381;53.688;10.776;2023-04-28T18:16:27;100746.81;;;13.41;53.73
52469;BME280;38381;53.688;10.776;2023-04-28T18:21:27;100746.91;;;13.17;55.19
52469;BME280;38381;53.688;10.776;2023-04-28T18:26:28;100744.28;;;13.15;55.18
52469;BME280;38381;53.688;10.776;2023-04-28T18:31:31;100739.13;;;13.07;56.02
52469;BME280;38381;53.688;10.776;2023-04-28T18:36:33;100738.25;;;13.08;56.65
52469;BME280;38381;53.688;10.776;2023-04-28T18:41:36;100746.94;;;13.01;58.29
52469;BME280;38381;53.688;10.776;2023-04-28T18:46:38;100746.94;;;13.01;59.36
52469;BME280;38381;53.688;10.776;2023-04-28T18:51:39;100750.47;;;12.94;61.52
52469;BME280;38381;53.688;10.776;2023-04-28T18:56:39;100750.47;;;12.83;63.76
52469;BME280;38381;53.688;10.776;2023-04-28T19:01:40;100758.31;;;12.80;65.50
52469;BME280;38381;53.688;10.776;2023-04-28T19:06:41;100761.78;;;12.84;67.36
52469;BME280;38381;53.688;10.776;2023-04-28T19:11:43;100760.94;;;12.76;69.01
52469;BME280;38381;53.688;10.776;2023-04-28T19:16:43;100758.34;;;12.70;69.08
52469;BME280;38381;53.688;10.776;2023-04-28T19:21:44;100773.97;;;12.57;70.00
52469;BME280;38381;53.688;10.776;2023-04-28T19:26:45;100768.78;;;12.50;70.46
52469;BME280;38381;53.688;10.776;2023-04-28T19:31:45;100770.50;;;12.40;71.53
52469;BME280;38381;53.688;10.776;2023-04-28T19:36:47;100776.59;;;12.37;71.18
52469;BME280;38381;53.688;10.776;2023-04-28T19:41:48;100778.31;;;12.32;71.06
52469;BME280;38381;53.688;10.776;2023-04-28T19:46:49;100775.75;;;12.18;72.05
52469;BME280;38381;53.688;10.776;2023-04-28T19:51:49;100768.78;;;12.05;73.02
52469;BME280;38381;53.688;10.776;2023-04-28T19:56:51;100763.59;;;11.96;73.23
52469;BME280;38381;53.688;10.776;2023-04-28T20:01:52;100769.63;;;11.85;74.40
52469;BME280;38381;53.688;10.776;2023-04-28T20:06:53;100758.34;;;11.80;74.77
52469;BME280;38381;53.688;10.776;2023-04-28T20:11:53;100764.38;;;11.65;75.47
52469;BME280;38381;53.688;10.776;2023-04-28T20:16:55;100763.47;;;11.50;76.32
52469;BME280;38381;53.688;10.776;2023-04-28T20:21:56;100762.56;;;11.35;76.05
52469;BME280;38381;53.688;10.776;2023-04-28T20:26:56;100755.59;;;11.16;76.18
52469;BME280;38381;53.688;10.776;2023-04-28T20:32:01;100759.00;;;11.08;76.60
52469;BME280;38381;53.688;10.776;2023-04-28T20:37:02;100757.25;;;11.04;76.71
52469;BME280;38381;53.688;10.776;2023-04-28T20:42:03;100761.53;;;10.92;77.54
52469;BME280;38381;53.688;10.776;2023-04-28T20:47:04;100759.75;;;10.83;77.46
52469;BME280;38381;53.688;10.776;2023-04-28T20:52:05;100763.19;;;10.79;77.70
52469;BME280;38381;53.688;10.776;2023-04-28T20:57:05;100753.66;;;10.75;77.47
52469;BME280;38381;53.688;10.776;2023-04-28T21:02:08;100759.69;;;10.71;77.26
52469;BME280;38381;53.688;10.776;2023-04-28T21:07:09;100757.03;;;10.61;77.89
52469;BME280;38381;53.688;10.776;2023-04-28T21:12:09;100767.38;;;10.55;78.57
52469;BME280;38381;53.688;10.776;2023-04-28T21:17:10;100766.44;;;10.44;79.12
52469;BME280;38381;53.688;10.776;2023-04-28T21:22:10;100764.47;;;10.15;79.96
52469;BME280;38381;53.688;10.776;2023-04-28T21:27:11;100764.44;;;10.17;80.48
52469;BME280;38381;53.688;10.776;2023-04-28T21:32:11;100767.00;;;10.11;80.06
52469;BME280;38381;53.688;10.776;2023-04-28T21:37:12;100767.81;;;10.05;80.33
52469;BME280;38381;53.688;10.776;2023-04-28T21:42:13;100765.09;;;9.91;81.06
52469;BME280;38381;53.688;10.776;2023-04-28T21:47:13;100764.94;;;9.73;81.96
52469;BME280;38381;53.688;10.776;2023-04-28T21:52:15;100771.84;;;9.75;82.19
52469;BME280;38381;53.688;10.776;2023-04-28T21:57:16;100763.13;;;9.67;82.62
52469;BME280;38381;53.688;10.776;2023-04-28T22:02:16;100769.06;;;9.57;83.20
52469;BME280;38381;53.688;10.776;2023-04-28T22:07:17;100761.19;;;9.44;83.24
52469;BME280;38381;53.688;10.776;2023-04-28T22:12:17;100750.72;;;9.35;83.80
52469;BME280;38381;53.688;10.776;2023-04-28T22:17:18;100766.13;;;9.23;83.71
52469;BME280;38381;53.688;10.776;2023-04-28T22:22:18;100759.97;;;9.15;84.42
52469;BME280;38381;53.688;10.776;2023-04-28T22:27:19;100757.00;;;8.84;84.50
52469;BME280;38381;53.688;10.776;2023-04-28T22:32:19;100754.50;;;8.92;84.75
52469;BME280;38381;53.688;10.776;2023-04-28T22:37:20;100761.28;;;8.83;85.91
52469;BME280;38381;53.688;10.776;2023-04-28T22:42:20;100754.34;;;8.78;85.37
52469;BME280;38381;53.688;10.776;2023-04-28T22:47:21;100763.84;;;8.80;85.62
52469;BME280;38381;53.688;10.776;2023-04-28T22:52:21;100760.34;;;8.77;85.88
52469;BME280;38381;53.688;10.776;2023-04-28T22:57:23;100763.75;;;8.74;86.15
52469;BME280;38381;53.688;10.776;2023-04-28T23:02:23;100765.56;;;8.80;86.04
52469;BME280;38381;53.688;10.776;2023-04-28T23:07:24;100759.28;;;8.62;86.89
52469;BME280;38381;53.688;10.776;2023-04-28T23:12:24;100753.22;;;8.60;86.89
52469;BME280;38381;53.688;10.776;2023-04-28T23:17:25;100754.97;;;8.63;87.49
52469;BME280;38381;53.688;10.776;2023-04-28T23:22:26;100748.84;;;8.56;87.37
52469;BME280;38381;53.688;10.776;2023-04-28T23:27:26;100737.53;;;8.48;87.41
52469;BME280;38381;53.688;10.776;2023-04-28T23:32:27;100745.84;;;8.30;88.75
52469;BME280;38381;53.688;10.776;2023-04-28T23:37:27;100738.22;;;8.38;88.23
52469;BME280;38381;53.688;10.776;2023-04-28T23:42:27;100745.13;;;8.39;87.95
52469;BME280;38381;53.688;10.776;2023-04-28T23:47:28;100742.50;;;8.37;88.51
52469;BME280;38381;53.688;10.776;2023-04-28T23:52:29;100749.38;;;8.35;88.76
52469;BME280;38381;53.688;10.776;2023-04-28T23:57:30;100745.06;;;8.36;88.49
